Terminal Aerodrome Forecast
Issued by NWS

Home | Current Version | Previous Version | Text Only | Print | Product List | Glossary On
Versions: 1 2 3 4 5 6 7 8 9 10 11 12 13 14 15 16 17 18 19 20 21 22 23 24 25 26 27 28 29 30 31 32
000
FTUS42 KJAX 260500
TAFCRG
TAF
KCRG 260520Z 2606/2706 00000KT P6SM SCT250
      TEMPO 2608/2612 3SM BR
     FM261400 05004KT P6SM SCT250
     FM261900 04007KT P6SM FEW035 BKN250=

USA.gov is the U.S. government's official web portal to all federal, state and local government web resources and services.